EGLLLIPY

Guest
Details From EGLL - London Heathrow
To LIPY - Falconara
Flight Number -
Tags Generated
Created
Modified
Stats Distance 731 nm / 1,354 km
Max Altitude 0 ft / 0 m
Waypoints 5
Social Downloads 0
Likes 0
Share VATSIM

Download

Looking for another format? Having issues loading an existing format? Contact us
Advertisement - Login to hide

Notes

Generated

Route

EGLL RANUX LUKOM ROGAK LIPY

ID Type Via Altitude Latitude Longitude Leg Dist Tot Dist Heading (true) Name
O EGLL APT - 0 ft / 0 m 51.46477˚ -0.48695˚ - 0 nm - -
RANUX FIX - 0 ft / 0 m 49.13889˚ 4.36167˚ 232 nm 232 nm 125° / 129° -
LUKOM FIX - 0 ft / 0 m 46.58500˚ 8.75861˚ 234 nm 466 nm 129° / 132° -
ROGAK FIX - 0 ft / 0 m 43.87472˚ 12.90278˚ 239 nm 705 nm 131° / 134° -
O LIPY APT - 0 ft / 0 m 43.60691˚ 13.34935˚ 25 nm 731 nm 130° / 130° -

Altitude Profile

Advertisement - Login to hide

Weather


0- 5 10 15 20 25 30 35+ Temperature / ° C

Clouds and Precipitation
Forecast for 2017-12-15 00:00 UTC. Updated an hour ago

Ground ~20,000 ft ~40,000 ft Winds

EGLL

Details ICAO EGLL (LHR)
Name London Heathrow
Region United Kingdom
Timezone Europe/London (UTC+0.0)
Stats Elevation 83 ft / 25 m (AMSL)
Location 51.471218° -0.460978°
Runways 2
Magnetic Variation 0.560° W

METAR

EGLL 150020Z AUTO 27007KT 9999 NCD 02/01 Q0990 NOSIG

Decode

TAF

TAF EGLL 142304Z 1500/1606 25008KT 9999 SCT025 BECMG 1503/1506 BKN010 TEMPO 1503/1512 7000 SHRA BKN007 BECMG 1506/1509 33012KT BECMG 1509/1512 BKN015 PROB40 TEMPO 1512/1518 34015G25KT 8000 -SHRA BKN012 BECMG 1518/1521 CAVOK

Decode

Departure Runways

ID Width Length Bearing (true) Bearing (mag) Surface Threshold Offset Overrun Length
09L 164 ft / 50 m 12,811 ft / 3,905 m 89.64° 90.20° Asphalt 1,004 ft / 306 m 0 ft / 0 m
09R 164 ft / 50 m 12,019 ft / 3,663 m 89.67° 90.23° Asphalt 1,007 ft / 307 m 0 ft / 0 m
27L 164 ft / 50 m 12,019 ft / 3,663 m 269.71° 270.27° Asphalt 0 ft / 0 m 69 ft / 21 m
27R 164 ft / 50 m 12,811 ft / 3,905 m 269.69° 270.25° Asphalt 0 ft / 0 m 69 ft / 21 m

LIPY

Details ICAO LIPY (AOI)
Name FALCONARA
Region Italy
Timezone Europe/Rome (UTC+1.0)
Stats Elevation 49 ft / 15 m (AMSL)
Location 43.616351° 13.362310°
Runways 1
Magnetic Variation 3.294° E

METAR

LIPY 142350Z 21013KT CAVOK 15/07 Q1004

Decode

TAF

TAF LIPY 142300Z 1500/1524 21015KT 9999 SCT030 TEMPO 1500/1510 21015G25KT TEMPO 1512/1524 RA

Decode

Destination Runways

ID Width Length Bearing (true) Bearing (mag) Surface Threshold Offset Overrun Length
04 148 ft / 45 m 9,711 ft / 2,960 m 44.81° 41.52° Asphalt 641 ft / 195 m 0 ft / 0 m
22 148 ft / 45 m 9,711 ft / 2,960 m 224.83° 221.54° Asphalt 492 ft / 150 m 0 ft / 0 m

Approach Navaids

Runway Type Ident Frequency Range Bearing (true) Bearing (mag) Slope Elevation
22 Localiser IFA 111.90 MHz 18 nm / 33 km 224.79° 221.50° - 47 ft / 14 m (AMSL)
22 Glidescope IFA 111.90 MHz 10 nm / 19 km 224.82° 221.53° 3.50° 34 ft / 10 m (AMSL)
22 DME IFA 111.90 MHz 18 nm / 33 km - - - 50 ft / 15 m (AMSL)